Time;durP1;ratioP1;P1;durP2;ratioP2;P2;SDS_P1;SDS_P2;PMS_P1;PMS_P2;Temp;Humidity;BMP_temperature;BMP_pressure;BME280_temperature;BME280_humidity;BME280_pressure;Samples;Min_cycle;Max_cycle;Signal;HPM_P1;HPM_P2
2022/04/23 00:01:01;;;;;;;16.30;10.68;;;;;;;9.53;77.17;100585.09;5058663;28;20487;-65
2022/04/23 00:03:27;;;;;;;17.48;11.52;;;;;;;9.58;77.01;100575.00;5041460;28;20074;-65
2022/04/23 00:05:52;;;;;;;19.05;11.30;;;;;;;9.54;77.17;100578.00;5057977;28;20043;-65
2022/04/23 00:08:18;;;;;;;17.80;10.68;;;;;;;9.50;77.59;100574.66;5041887;28;20071;-65
2022/04/23 00:10:43;;;;;;;19.75;12.27;;;;;;;9.37;78.08;100583.50;5061948;28;20036;-65
2022/04/23 00:13:09;;;;;;;20.00;12.55;;;;;;;9.36;78.10;100574.66;5062311;28;20059;-65
2022/04/23 00:15:39;;;;;;;21.95;12.45;;;;;;;9.30;78.53;100580.38;5044317;28;20565;-65
2022/04/23 00:18:08;;;;;;;21.55;12.45;;;;;;;9.28;78.60;100574.28;5062574;28;20048;-65
2022/04/23 00:20:35;;;;;;;20.13;12.05;;;;;;;9.34;78.53;100568.59;5062288;28;20037;-65
2022/04/23 00:23:01;;;;;;;20.00;11.85;;;;;;;9.27;78.82;100584.06;5062521;28;20040;-64
2022/04/23 00:25:28;;;;;;;20.80;12.55;;;;;;;9.26;78.78;100574.38;5043706;28;20036;-65
2022/04/23 00:27:53;;;;;;;19.98;11.57;;;;;;;9.15;79.50;100576.00;5062134;28;20874;-65
2022/04/23 00:30:19;;;;;;;20.05;12.30;;;;;;;9.18;79.16;100575.81;5061677;28;20144;-65
2022/04/23 00:32:45;;;;;;;22.23;13.00;;;;;;;9.19;79.38;100580.19;5043266;28;20063;-65
2022/04/23 00:35:17;;;;;;;20.77;13.23;;;;;;;9.19;79.23;100578.41;5061653;28;20507;-65
2022/04/23 00:37:44;;;;;;;19.95;12.02;;;;;;;9.25;79.19;100578.00;5044378;28;20564;-65
2022/04/23 00:40:16;;;;;;;20.27;12.75;;;;;;;9.20;79.68;100576.59;5059126;28;20033;-65
2022/04/23 00:42:51;;;;;;;21.42;12.93;;;;;;;9.15;79.68;100570.69;5061970;28;20048;-65
2022/04/23 00:45:17;;;;;;;23.55;14.05;;;;;;;9.15;79.81;100578.69;5062368;28;20037;-65
2022/04/23 00:47:42;;;;;;;25.13;14.13;;;;;;;9.15;79.94;100571.53;5061589;28;20137;-65
2022/04/23 00:50:08;;;;;;;25.80;14.57;;;;;;;9.11;79.91;100571.81;5062188;28;20052;-65
2022/04/23 00:52:35;;;;;;;24.75;14.55;;;;;;;9.18;79.84;100563.34;5061929;28;20106;-65
2022/04/23 00:55:05;;;;;;;23.73;14.50;;;;;;;9.17;79.60;100569.63;5061653;28;20041;-65
2022/04/23 00:57:32;;;;;;;26.00;15.60;;;;;;;9.17;80.11;100560.81;5041601;28;20033;-65
2022/04/23 00:59:59;;;;;;;25.30;14.98;;;;;;;9.26;79.72;100561.09;5041820;28;20052;-65
2022/04/23 01:02:24;;;;;;;23.88;14.23;;;;;;;9.23;79.90;100555.94;5041200;28;20075;-65
2022/04/23 01:04:49;;;;;;;27.25;15.68;;;;;;;9.37;79.51;100564.88;5049668;28;20036;-64
2022/04/23 01:07:15;;;;;;;25.52;15.57;;;;;;;9.33;79.55;100561.53;5061506;28;20046;-65
2022/04/23 01:09:44;;;;;;;24.73;15.35;;;;;;;9.38;79.44;100562.09;5061547;28;20048;-65
2022/04/23 01:12:11;;;;;;;29.92;15.55;;;;;;;9.36;79.60;100555.19;5061306;28;20080;-65
2022/04/23 01:14:55;;;;;;;26.48;15.48;;;;;;;9.34;79.64;100555.31;5061247;28;20045;-65
2022/04/23 01:17:21;;;;;;;28.80;15.15;;;;;;;9.40;79.53;100554.06;5060784;28;20067;-65
2022/04/23 01:19:46;;;;;;;31.08;16.02;;;;;;;9.33;79.93;100562.41;5042617;28;20041;-65
2022/04/23 01:22:12;;;;;;;29.45;16.08;;;;;;;9.41;79.55;100559.28;5060534;28;20514;-65
2022/04/23 01:24:37;;;;;;;28.92;15.98;;;;;;;9.33;80.06;100556.22;5061179;28;20040;-65
2022/04/23 01:27:04;;;;;;;32.78;18.33;;;;;;;9.31;79.90;100559.00;5061368;28;20787;-65
2022/04/23 01:29:30;;;;;;;26.77;16.60;;;;;;;9.30;80.17;100551.97;5060821;28;20040;-65
2022/04/23 01:31:55;;;;;;;30.98;17.73;;;;;;;9.43;79.59;100560.00;5059251;28;20063;-65
2022/04/23 01:34:20;;;;;;;28.85;16.60;;;;;;;9.42;79.75;100560.97;5060544;28;20032;-65
2022/04/23 01:36:46;;;;;;;31.65;17.70;;;;;;;9.40;79.95;100560.22;5060272;28;20112;-65
2022/04/23 01:39:11;;;;;;;29.00;17.75;;;;;;;9.32;80.52;100562.50;5060565;28;20032;-65
2022/04/23 01:41:36;;;;;;;30.23;17.50;;;;;;;9.43;79.68;100565.34;5060778;28;20040;-65
2022/04/23 01:44:02;;;;;;;33.30;18.15;;;;;;;9.45;79.69;100566.13;5060572;28;20788;-66
2022/04/23 01:46:28;;;;;;;33.78;19.00;;;;;;;9.51;79.59;100570.19;5060516;28;20222;-65
2022/04/23 01:48:53;;;;;;;27.60;17.30;;;;;;;9.53;79.65;100566.47;5026201;28;20047;-65
2022/04/23 01:51:18;;;;;;;32.85;17.05;;;;;;;9.60;79.44;100564.28;5060939;28;20516;-65
2022/04/23 01:53:44;;;;;;;37.83;19.20;;;;;;;9.66;79.28;100565.69;5060281;28;20044;-65
2022/04/23 01:56:11;;;;;;;31.33;18.75;;;;;;;9.69;78.93;100571.69;5051871;28;20037;-65
2022/04/23 01:58:36;;;;;;;37.65;20.15;;;;;;;9.68;79.22;100569.97;5040619;28;20056;-65
2022/04/23 02:01:02;;;;;;;34.55;19.10;;;;;;;9.69;78.90;100566.38;5040580;28;20052;-65
2022/04/23 02:03:29;;;;;;;29.67;18.00;;;;;;;9.74;78.97;100571.38;5023742;28;20041;-65
2022/04/23 02:05:55;;;;;;;32.45;18.42;;;;;;;9.73;79.11;100567.84;5025339;28;20419;-65
2022/04/23 02:08:21;;;;;;;31.30;19.00;;;;;;;9.70;79.09;100569.88;5025712;28;20112;-65
2022/04/23 02:10:47;;;;;;;38.88;19.02;;;;;;;9.73;79.11;100569.66;5043416;28;20044;-65
2022/04/23 02:13:13;;;;;;;30.92;18.70;;;;;;;9.72;79.21;100568.81;5025899;28;20098;-65
2022/04/23 02:15:40;;;;;;;35.88;20.88;;;;;;;9.72;79.04;100568.81;5044047;28;20052;-65
2022/04/23 02:18:06;;;;;;;37.65;20.40;;;;;;;9.69;79.30;100569.03;5042206;28;20048;-66
2022/04/23 02:20:32;;;;;;;36.92;20.55;;;;;;;9.70;79.28;100565.41;5022843;28;20505;-65
2022/04/23 02:22:57;;;;;;;32.58;18.10;;;;;;;9.69;79.54;100566.38;5023206;28;20049;-65
2022/04/23 02:25:24;;;;;;;34.28;18.70;;;;;;;9.64;79.88;100565.81;5040510;28;20033;-65
2022/04/23 02:27:49;;;;;;;38.55;20.58;;;;;;;9.58;79.76;100564.38;5040849;28;20051;-65
2022/04/23 02:30:17;;;;;;;33.72;19.55;;;;;;;9.50;79.89;100568.50;5039897;28;20040;-65
2022/04/23 02:32:43;;;;;;;31.25;18.70;;;;;;;9.44;80.45;100571.50;5022540;28;20040;-65
2022/04/23 02:35:11;;;;;;;32.20;19.25;;;;;;;9.52;79.91;100569.22;5040000;28;20864;-65
2022/04/23 02:37:37;;;;;;;33.53;19.20;;;;;;;9.57;80.03;100575.13;5021737;28;20036;-65
2022/04/23 02:40:04;;;;;;;39.38;19.95;;;;;;;9.62;79.77;100572.16;5057457;28;20860;-65
2022/04/23 02:42:30;;;;;;;32.85;19.42;;;;;;;9.62;79.95;100581.00;5059209;28;20775;-65
2022/04/23 02:45:00;;;;;;;32.78;19.45;;;;;;;9.62;79.92;100573.03;5059856;28;20037;-65
2022/04/23 02:47:54;;;;;;;36.25;20.55;;;;;;;9.60;79.75;100581.13;5024175;28;20594;-65
2022/04/23 02:50:25;;;;;;;;;;;;;;;9.59;79.70;100581.22;5051408;28;20147;-65
2022/04/23 02:52:51;;;;;;;39.40;21.00;;;;;;;9.48;80.06;100573.03;5059703;28;19961;-65
2022/04/23 02:55:17;;;;;;;37.47;21.10;;;;;;;9.46;80.08;100581.13;5059649;28;20440;-65
2022/04/23 02:57:43;;;;;;;36.65;20.48;;;;;;;9.53;80.08;100576.25;5041553;28;20040;-65
2022/04/23 03:00:12;;;;;;;34.88;20.10;;;;;;;9.52;79.98;100575.41;5041236;28;20488;-65
2022/04/23 03:02:38;;;;;;;40.72;21.33;;;;;;;9.48;80.15;100568.56;5041460;28;20045;-65
2022/04/23 03:05:11;;;;;;;33.03;20.55;;;;;;;9.46;80.12;100570.47;5059361;28;20033;-65
2022/04/23 03:07:37;;;;;;;37.63;21.30;;;;;;;9.49;80.12;100564.97;5041779;28;20041;-65
2022/04/23 03:10:07;;;;;;;36.22;19.58;;;;;;;9.51;80.24;100563.06;5023919;28;20056;-65
2022/04/23 03:12:36;;;;;;;36.25;20.88;;;;;;;9.53;80.11;100568.28;5041079;28;20044;-65
2022/04/23 03:15:03;;;;;;;32.58;19.15;;;;;;;9.49;80.48;100564.13;5058663;28;20048;-65
2022/04/23 03:17:29;;;;;;;38.63;21.58;;;;;;;9.45;80.40;100563.44;5058219;28;20160;-65
2022/04/23 03:19:54;;;;;;;34.60;20.08;;;;;;;9.41;80.74;100561.94;5058621;28;20591;-66
2022/04/23 03:22:21;;;;;;;35.47;20.55;;;;;;;9.39;80.71;100571.81;5040775;28;20051;-66
2022/04/23 03:24:47;;;;;;;36.60;20.55;;;;;;;9.22;81.25;100562.22;5040428;28;20127;-65
2022/04/23 03:27:12;;;;;;;32.38;18.55;;;;;;;9.10;81.88;100567.47;5058908;28;20579;-65
2022/04/23 03:29:39;;;;;;;37.30;20.92;;;;;;;9.04;81.88;100563.38;5058385;28;20656;-65
2022/04/23 03:32:05;;;;;;;35.17;20.25;;;;;;;8.87;82.26;100566.19;5058594;28;20485;-65
2022/04/23 03:34:30;;;;;;;33.42;19.00;;;;;;;8.84;82.33;100567.25;5058580;28;20036;-65
2022/04/23 03:36:55;;;;;;;35.88;21.42;;;;;;;8.72;83.07;100562.66;5058640;28;20037;-65
2022/04/23 03:39:21;;;;;;;37.25;22.30;;;;;;;8.70;82.94;100572.53;5059156;28;20036;-65
2022/04/23 03:41:46;;;;;;;38.78;21.77;;;;;;;8.56;83.20;100579.53;5058739;28;20823;-70
2022/04/23 03:44:12;;;;;;;36.13;20.42;;;;;;;8.38;82.99;100571.78;5060811;28;20048;-65
2022/04/23 03:46:37;;;;;;;45.85;22.73;;;;;;;8.24;83.47;100576.06;5063109;28;20051;-66
2022/04/23 03:49:03;;;;;;;36.97;20.27;;;;;;;8.29;83.96;100575.81;5062096;28;20053;-66
2022/04/23 03:51:28;;;;;;;36.30;20.95;;;;;;;8.34;83.69;100579.06;5063741;28;20045;-68
2022/04/23 03:53:53;;;;;;;43.20;22.52;;;;;;;8.28;83.74;100574.06;5063252;28;20169;-65
2022/04/23 03:56:19;;;;;;;41.50;22.17;;;;;;;8.17;84.04;100574.69;5062459;28;20613;-66
2022/04/23 03:58:45;;;;;;;42.22;21.98;;;;;;;8.19;84.15;100574.63;5062602;28;20061;-65
2022/04/23 04:01:10;;;;;;;38.50;21.35;;;;;;;8.19;84.60;100577.28;5062422;28;20041;-65
2022/04/23 04:03:35;;;;;;;40.42;22.90;;;;;;;8.22;84.33;100575.28;5062223;28;20125;-65
2022/04/23 04:06:01;;;;;;;44.67;23.45;;;;;;;8.25;84.75;100572.47;5062511;28;20085;-65
2022/04/23 04:08:27;;;;;;;39.17;22.92;;;;;;;8.22;84.58;100569.97;5027686;28;20033;-65
2022/04/23 04:10:52;;;;;;;41.55;22.88;;;;;;;8.24;85.19;100567.25;5062086;28;20501;-65
2022/04/23 04:13:18;;;;;;;43.20;22.23;;;;;;;8.28;84.79;100566.09;5043270;28;20047;-65
2022/04/23 04:15:45;;;;;;;40.88;23.27;;;;;;;8.36;84.64;100566.56;5043349;28;20072;-66
2022/04/23 04:18:11;;;;;;;41.78;23.33;;;;;;;8.38;84.06;100564.66;5061421;28;20052;-65
2022/04/23 04:20:39;;;;;;;40.63;22.75;;;;;;;8.27;84.64;100561.75;5042891;28;20040;-66
2022/04/23 04:23:06;;;;;;;40.63;21.67;;;;;;;8.29;84.58;100565.19;5026185;28;20512;-65
2022/04/23 04:25:31;;;;;;;36.22;20.42;;;;;;;8.31;85.02;100558.81;5061450;28;20686;-65
2022/04/23 04:27:59;;;;;;;38.97;23.05;;;;;;;8.20;84.75;100557.75;5043242;28;20047;-66
2022/04/23 04:30:25;;;;;;;39.97;22.23;;;;;;;8.14;84.96;100551.00;5061487;28;20045;-66
2022/04/23 04:32:51;;;;;;;42.75;22.92;;;;;;;8.22;84.97;100542.56;5061559;28;20568;-65
2022/04/23 04:35:16;;;;;;;45.95;22.52;;;;;;;8.23;85.30;100544.28;5026949;28;20040;-65
2022/04/23 04:37:42;;;;;;;39.35;22.08;;;;;;;8.13;85.69;100549.25;5043868;28;20043;-65
2022/04/23 04:40:08;;;;;;;41.03;22.23;;;;;;;8.13;84.91;100548.41;5062492;28;20627;-65
2022/04/23 04:42:33;;;;;;;40.78;21.98;;;;;;;8.10;85.11;100544.16;5044626;28;20052;-66
2022/04/23 04:44:59;;;;;;;44.67;22.55;;;;;;;8.13;84.87;100540.44;5062138;28;20189;-65
2022/04/23 04:47:24;;;;;;;45.55;24.13;;;;;;;8.11;85.09;100545.84;5061554;28;20766;-65
2022/04/23 04:49:49;;;;;;;39.97;22.48;;;;;;;8.14;84.76;100545.69;5061544;28;20441;-65
2022/04/23 04:52:15;;;;;;;38.70;22.23;;;;;;;8.14;84.74;100543.03;5061526;28;20063;-65
2022/04/23 04:54:40;;;;;;;44.10;23.88;;;;;;;8.14;85.21;100536.88;5060494;28;20040;-65
2022/04/23 04:57:06;;;;;;;41.92;21.92;;;;;;;8.18;85.21;100539.25;5046994;28;20029;-65
2022/04/23 04:59:31;;;;;;;42.97;21.98;;;;;;;8.13;85.19;100541.28;5057865;28;20063;-65
2022/04/23 05:01:58;;;;;;;41.38;24.45;;;;;;;8.17;84.79;100534.84;5060486;28;20040;-64
2022/04/23 05:04:23;;;;;;;37.08;21.13;;;;;;;8.19;85.17;100556.03;5041986;28;20135;-64
2022/04/23 05:06:49;;;;;;;41.20;23.42;;;;;;;8.18;85.18;100547.22;5057980;28;20037;-64
2022/04/23 05:09:14;;;;;;;43.08;22.55;;;;;;;8.29;84.77;100549.25;5055558;28;20053;-65
2022/04/23 05:11:40;;;;;;;39.90;22.02;;;;;;;8.36;84.60;100555.03;5055622;28;20037;-64
2022/04/23 05:14:05;;;;;;;35.88;20.52;;;;;;;8.36;84.83;100553.28;5061111;28;20040;-65
2022/04/23 05:16:31;;;;;;;38.88;21.55;;;;;;;8.41;84.84;100548.53;5061379;28;20044;-64
2022/04/23 05:18:56;;;;;;;42.88;21.88;;;;;;;8.45;84.58;100555.41;5058876;28;20029;-64
2022/04/23 05:21:21;;;;;;;39.17;21.42;;;;;;;8.45;84.84;100549.22;5061099;28;20079;-65
2022/04/23 05:23:47;;;;;;;40.78;21.15;;;;;;;8.51;84.62;100549.72;5042980;28;20491;-64
2022/04/23 05:26:12;;;;;;;45.33;24.15;;;;;;;8.50;84.95;100557.78;5040259;28;20052;-64
2022/04/23 05:28:39;;;;;;;36.60;21.08;;;;;;;8.61;84.18;100552.69;5044394;28;20048;-64
2022/04/23 05:31:05;;;;;;;39.08;21.45;;;;;;;8.76;84.40;100558.88;5059716;28;20824;-64
2022/04/23 05:33:30;;;;;;;34.67;20.02;;;;;;;9.03;83.08;100549.19;5062819;28;20032;-64
2022/04/23 05:35:55;;;;;;;38.25;22.33;;;;;;;9.25;82.13;100551.41;5061444;28;20047;-64
2022/04/23 05:38:22;;;;;;;37.38;21.58;;;;;;;9.53;81.44;100544.31;5061126;28;20066;-64
2022/04/23 05:40:48;;;;;;;34.92;20.40;;;;;;;9.71;80.81;100547.63;5061019;28;20040;-64
2022/04/23 05:43:14;;;;;;;31.83;18.60;;;;;;;9.76;80.84;100545.50;5043123;28;20140;-64
2022/04/23 05:45:40;;;;;;;32.25;19.10;;;;;;;9.60;80.89;100546.50;5043313;28;20069;-64
2022/04/23 05:48:06;;;;;;;32.83;18.90;;;;;;;9.77;81.19;100548.06;5056829;28;20420;-65
2022/04/23 05:50:32;;;;;;;36.50;20.33;;;;;;;9.78;80.21;100552.44;5054992;28;20037;-65
2022/04/23 05:52:57;;;;;;;32.83;19.58;;;;;;;10.24;79.16;100554.81;5059812;28;20041;-65
2022/04/23 05:55:22;;;;;;;31.35;18.08;;;;;;;10.06;79.53;100558.63;5042575;28;20059;-65
2022/04/23 05:57:49;;;;;;;39.25;19.05;;;;;;;10.24;78.42;100548.59;5056179;28;20047;-65
2022/04/23 06:00:15;;;;;;;30.35;18.38;;;;;;;10.17;78.93;100550.78;5053485;28;20041;-65
2022/04/23 06:02:40;;;;;;;29.75;17.90;;;;;;;10.07;79.07;100549.69;5043109;28;20075;-65
2022/04/23 06:05:07;;;;;;;29.83;17.88;;;;;;;10.10;79.14;100552.16;5060747;28;20041;-64
2022/04/23 06:07:33;;;;;;;28.95;17.08;;;;;;;10.04;79.10;100557.88;5042089;28;20125;-65
2022/04/23 06:09:59;;;;;;;27.02;15.88;;;;;;;10.04;78.80;100558.75;5059828;28;20438;-65
2022/04/23 06:12:24;;;;;;;28.75;17.45;;;;;;;9.92;78.70;100551.53;5060265;28;20117;-66
2022/04/23 06:14:50;;;;;;;28.48;17.38;;;;;;;9.96;79.21;100560.19;5060067;28;20036;-65
2022/04/23 06:17:17;;;;;;;26.95;16.13;;;;;;;9.93;79.04;100555.91;5042052;28;20480;-64
2022/04/23 06:19:43;;;;;;;26.85;15.88;;;;;;;10.14;78.24;100551.00;5060425;28;20043;-64
2022/04/23 06:22:09;;;;;;;28.33;17.33;;;;;;;10.21;77.71;100560.28;5060865;28;20040;-64
2022/04/23 06:24:34;;;;;;;27.02;17.17;;;;;;;10.48;78.19;100562.94;5060753;28;20028;-64
2022/04/23 06:27:00;;;;;;;26.08;15.40;;;;;;;10.35;77.66;100560.25;5058967;28;20691;-64
2022/04/23 06:29:26;;;;;;;27.15;16.73;;;;;;;10.57;77.66;100549.00;5060068;28;20047;-64
2022/04/23 06:31:51;;;;;;;27.02;16.30;;;;;;;10.93;76.15;100550.09;5059286;28;20048;-65
2022/04/23 06:34:17;;;;;;;23.42;14.02;;;;;;;10.86;76.16;100552.34;5058935;28;20033;-64
2022/04/23 06:36:43;;;;;;;27.90;16.42;;;;;;;11.01;75.39;100553.09;5058878;28;20044;-64
2022/04/23 06:39:08;;;;;;;23.30;15.20;;;;;;;11.57;73.89;100545.53;5056488;28;20037;-65
2022/04/23 06:41:34;;;;;;;24.30;14.82;;;;;;;12.14;71.66;100546.72;5056817;28;20040;-64
2022/04/23 06:44:00;;;;;;;26.50;15.45;;;;;;;12.63;69.93;100545.69;5054551;28;20097;-65
2022/04/23 06:46:25;;;;;;;22.50;15.82;;;;;;;12.99;69.27;100539.31;5036510;28;20037;-65
2022/04/23 06:48:51;;;;;;;23.30;14.75;;;;;;;12.74;69.04;100536.84;5054991;28;20040;-64
2022/04/23 06:51:16;;;;;;;24.27;14.60;;;;;;;12.69;69.05;100542.53;5057390;28;20028;-65
2022/04/23 06:53:42;;;;;;;23.13;14.63;;;;;;;12.85;68.36;100535.06;5054432;28;20040;-65
2022/04/23 06:56:08;;;;;;;21.45;14.50;;;;;;;13.03;68.78;100535.41;5057579;28;20485;-65
2022/04/23 06:58:34;;;;;;;20.13;13.13;;;;;;;12.74;69.00;100547.53;5059263;28;20036;-65
2022/04/23 07:01:00;;;;;;;22.65;14.60;;;;;;;13.25;68.18;100539.94;5059538;28;20062;-64
2022/04/23 07:03:26;;;;;;;25.98;13.98;;;;;;;13.43;66.69;100538.50;5059221;28;20467;-65
2022/04/23 07:05:51;;;;;;;21.52;14.02;;;;;;;13.30;67.17;100542.25;5059143;28;20627;-65
2022/04/23 07:08:17;;;;;;;20.98;13.38;;;;;;;13.26;66.77;100536.31;5058801;28;20512;-65
2022/04/23 07:10:44;;;;;;;21.38;13.73;;;;;;;13.29;66.48;100541.41;5059075;28;20032;-64
2022/04/23 07:13:10;;;;;;;22.60;14.52;;;;;;;13.40;65.46;100545.91;5024220;28;20470;-65
2022/04/23 07:15:36;;;;;;;23.33;14.48;;;;;;;13.09;67.34;100545.63;5058728;28;20036;-64
2022/04/23 07:18:01;;;;;;;21.60;13.27;;;;;;;12.91;67.80;100542.59;5061656;28;20040;-65
2022/04/23 07:20:27;;;;;;;24.85;14.70;;;;;;;13.37;67.22;100533.63;5042995;28;20024;-65
2022/04/23 07:25:37;;;;;;;33.80;13.95;;;;;;;13.20;66.56;100532.28;5062256;28;20564;-66
2022/04/23 07:28:03;;;;;;;24.52;13.73;;;;;;;13.84;65.94;100526.25;5064303;28;20068;-67
2022/04/23 07:30:30;;;;;;;23.92;15.15;;;;;;;13.38;66.17;100526.44;5063561;28;20037;-65
2022/04/23 07:32:56;;;;;;;19.73;12.30;;;;;;;13.39;65.78;100528.16;5063687;28;20798;-65
2022/04/23 07:38:17;;;;;;;22.60;14.40;;;;;;;14.10;65.19;100523.22;5063049;28;20063;-65
2022/04/23 07:40:43;;;;;;;21.40;12.60;;;;;;;13.73;64.87;100527.13;5048838;28;20136;-65
2022/04/23 07:43:12;;;;;;;25.52;15.65;;;;;;;13.77;65.55;100524.22;5044803;28;20052;-63
2022/04/23 07:45:39;;;;;;;25.20;14.90;;;;;;;14.41;63.87;100517.03;5062800;28;20605;-63
2022/04/23 07:48:05;;;;;;;20.90;14.30;;;;;;;14.17;64.16;100524.44;5062459;28;20041;-62
2022/04/23 07:50:31;;;;;;;23.92;14.65;;;;;;;14.78;62.97;100521.94;5062366;28;20045;-63
2022/04/23 07:52:57;;;;;;;25.17;14.80;;;;;;;14.48;63.22;100525.41;5061675;28;20408;-62
2022/04/23 07:55:23;;;;;;;22.30;15.10;;;;;;;15.35;61.70;100523.22;5042248;28;20043;-63
2022/04/23 07:57:48;;;;;;;25.20;15.60;;;;;;;15.37;60.90;100513.19;5061587;28;20541;-63
2022/04/23 08:00:14;;;;;;;22.92;14.27;;;;;;;15.13;61.68;100516.19;5062613;28;20075;-63
2022/04/23 08:02:40;;;;;;;25.05;15.90;;;;;;;15.55;59.78;100516.06;5044570;28;20150;-63
2022/04/23 08:05:05;;;;;;;24.63;15.00;;;;;;;14.49;63.55;100521.75;5062778;28;20037;-62
2022/04/23 08:07:31;;;;;;;23.13;15.02;;;;;;;14.76;61.43;100521.25;5044194;28;20044;-62
2022/04/23 08:09:56;;;;;;;23.85;15.82;;;;;;;15.79;61.32;100508.50;5059622;28;20068;-62
2022/04/23 08:12:22;;;;;;;28.83;17.27;;;;;;;15.22;61.43;100501.13;5062407;28;20045;-62
2022/04/23 08:14:47;;;;;;;25.55;16.65;;;;;;;14.76;61.22;100510.50;5061315;28;20762;-63
2022/04/23 08:17:13;;;;;;;29.23;16.08;;;;;;;14.28;61.87;100523.53;5062803;28;20040;-62
2022/04/23 08:19:38;;;;;;;30.63;18.65;;;;;;;14.97;59.36;100508.63;5062223;28;20045;-62
2022/04/23 08:22:04;;;;;;;31.33;18.15;;;;;;;15.65;58.03;100495.47;5034691;28;20052;-63
2022/04/23 08:24:31;;;;;;;26.75;17.48;;;;;;;14.96;59.30;100503.38;5058350;28;20123;-64
2022/04/23 08:26:57;;;;;;;29.13;17.48;;;;;;;15.06;58.29;100506.13;5061487;28;20040;-63
2022/04/23 08:32:06;;;;;;;31.80;17.65;;;;;;;15.78;59.46;100493.38;5041608;28;20049;-64
2022/04/23 08:34:32;;;;;;;28.55;16.85;;;;;;;15.36;58.60;100495.38;5052724;28;20041;-63
2022/04/23 08:36:57;;;;;;;26.50;15.98;;;;;;;14.77;59.47;100493.41;5060882;28;20048;-61
2022/04/23 08:39:23;;;;;;;25.70;16.38;;;;;;;15.45;58.33;100486.47;5061100;28;20036;-60
2022/04/23 08:41:48;;;;;;;27.85;16.30;;;;;;;15.79;56.65;100491.53;5061396;28;20408;-59
2022/04/23 08:44:16;;;;;;;27.30;16.42;;;;;;;16.22;57.71;100483.06;5061471;28;20051;-60
2022/04/23 08:46:41;;;;;;;26.77;16.73;;;;;;;15.97;56.75;100489.00;5060160;28;20040;-60
2022/04/23 08:49:11;;;;;;;27.38;15.90;;;;;;;15.48;56.79;100485.34;5061426;28;20098;-60
2022/04/23 08:51:38;;;;;;;29.73;17.35;;;;;;;15.78;56.58;100490.69;5049406;28;20041;-60
2022/04/23 08:54:07;;;;;;;24.52;15.45;;;;;;;15.27;59.12;100485.44;5023638;28;20043;-59
2022/04/23 08:56:34;;;;;;;29.23;15.80;;;;;;;15.24;59.25;100488.38;5052664;28;20047;-58
2022/04/23 08:59:00;;;;;;;29.95;17.67;;;;;;;15.77;57.11;100482.75;5042498;28;20048;-58
2022/04/23 09:01:30;;;;;;;26.25;15.60;;;;;;;14.95;59.71;100488.25;5041892;28;20121;-58
2022/04/23 09:03:56;;;;;;;27.73;16.48;;;;;;;15.63;59.12;100478.63;5060353;28;20158;-59
2022/04/23 09:06:21;;;;;;;25.70;16.20;;;;;;;15.87;57.99;100472.03;5060181;28;20955;-59
2022/04/23 09:09:20;;;;;;;27.40;16.90;;;;;;;14.87;60.10;100497.00;5059877;28;20419;-58
2022/04/23 09:11:56;;;;;;;27.60;16.20;;;;;;;14.67;59.49;100493.34;5043803;28;20151;-58
2022/04/23 09:14:32;;;;;;;30.20;15.85;;;;;;;15.69;57.92;100477.22;5060000;28;20740;-58
2022/04/23 09:25:35;;;;;;;28.48;16.33;;;;;;;15.45;57.80;100481.09;5057224;28;20155;-58
2022/04/23 09:28:14;;;;;;;29.52;15.43;;;;;;;15.81;57.55;100476.09;5039935;28;20043;-58
2022/04/23 09:30:39;;;;;;;29.02;15.85;;;;;;;15.75;57.24;100482.88;5058004;28;20405;-58
2022/04/23 09:33:05;;;;;;;26.40;16.10;;;;;;;16.28;56.78;100473.56;5057920;28;20070;-60
2022/04/23 09:35:31;;;;;;;24.00;14.75;;;;;;;16.51;55.59;100469.56;5040435;28;20051;-58
2022/04/23 09:38:13;;;;;;;26.10;14.32;;;;;;;15.49;56.47;100466.41;5058658;28;20076;-58
2022/04/23 09:40:38;;;;;;;;;;;;;;;16.31;56.25;100478.66;5059342;28;20068;-58
2022/04/23 09:43:06;;;;;;;25.35;15.13;;;;;;;16.54;55.73;100471.97;5040429;28;20007;-58
2022/04/23 09:45:33;;;;;;;24.73;15.20;;;;;;;15.34;55.72;100475.00;5042664;28;20033;-58
2022/04/23 09:48:04;;;;;;;24.83;14.77;;;;;;;15.79;56.78;100481.63;5054775;28;20090;-58
2022/04/23 09:50:40;;;;;;;23.00;14.37;;;;;;;15.76;56.39;100479.22;5023679;28;20460;-58
2022/04/23 09:53:17;;;;;;;31.45;15.25;;;;;;;16.45;54.33;100475.50;5055286;28;20041;-58
2022/04/23 09:55:43;;;;;;;29.60;16.35;;;;;;;16.23;54.08;100489.28;5053842;28;20044;-58
2022/04/23 09:58:10;;;;;;;22.85;14.32;;;;;;;16.44;55.50;100481.91;5029566;28;20045;-59
2022/04/23 10:00:38;;;;;;;25.67;15.45;;;;;;;16.58;55.22;100488.69;5058322;28;20044;-59
2022/04/23 10:03:08;;;;;;;26.30;15.02;;;;;;;15.98;54.91;100483.47;5058050;28;20048;-59
2022/04/23 10:05:46;;;;;;;25.38;14.55;;;;;;;16.04;55.51;100482.06;5041185;28;20033;-58
2022/04/23 10:08:16;;;;;;;26.98;14.85;;;;;;;16.86;54.64;100492.31;5058516;28;20041;-58
2022/04/23 10:11:19;;;;;;;24.95;14.32;;;;;;;16.47;51.95;100470.84;5058119;28;20864;-58
2022/04/23 10:13:47;;;;;;;;;;;;;;;16.60;52.44;100478.59;5026219;28;20037;-59
2022/04/23 10:16:13;;;;;;;20.23;13.65;;;;;;;16.95;52.47;100488.75;5058490;28;19921;-60
2022/04/23 10:18:40;;;;;;;24.20;13.38;;;;;;;17.29;51.90;100470.19;5058401;28;20122;-58
2022/04/23 10:21:30;;;;;;;23.63;14.15;;;;;;;16.93;52.19;100469.19;5057693;28;20033;-58
2022/04/23 10:24:06;;;;;;;34.72;15.40;;;;;;;17.50;52.96;100471.75;5057992;28;20037;-60
2022/04/23 10:26:42;;;;;;;25.65;15.65;;;;;;;18.50;50.96;100468.00;5040032;28;20041;-58
2022/04/23 10:29:20;;;;;;;25.05;15.93;;;;;;;18.20;51.20;100478.22;5057761;28;20052;-61
2022/04/23 10:32:08;;;;;;;25.50;15.80;;;;;;;17.57;50.09;100462.94;5057735;28;20047;-60
2022/04/23 10:34:34;;;;;;;26.75;13.85;;;;;;;16.73;51.60;100457.66;5057910;28;20416;-58
2022/04/23 10:37:14;;;;;;;26.83;15.13;;;;;;;16.79;52.90;100478.59;5058116;28;20036;-60
2022/04/23 10:39:40;;;;;;;34.00;15.93;;;;;;;16.46;52.24;100471.81;5051437;28;20094;-61
2022/04/23 10:42:06;;;;;;;31.38;16.42;;;;;;;17.13;50.67;100458.34;5039024;28;20150;-60
2022/04/23 10:44:32;;;;;;;25.90;15.55;;;;;;;17.20;50.72;100460.28;5056777;28;20056;-61
2022/04/23 10:46:58;;;;;;;27.88;15.75;;;;;;;17.74;49.65;100455.88;5039450;28;20044;-60
2022/04/23 10:49:25;;;;;;;28.20;17.00;;;;;;;18.30;49.96;100457.41;5057558;28;20051;-60
2022/04/23 10:51:57;;;;;;;24.60;14.95;;;;;;;18.37;50.95;100453.09;5039075;28;20040;-60
2022/04/23 10:54:44;;;;;;;28.50;16.35;;;;;;;17.79;50.39;100456.28;5038949;28;20568;-61
2022/04/23 10:57:12;;;;;;;26.92;16.48;;;;;;;17.79;51.56;100456.28;5057657;28;20485;-62
2022/04/23 10:59:43;;;;;;;31.70;17.42;;;;;;;17.91;51.32;100447.94;5058335;28;20033;-61
2022/04/23 11:02:23;;;;;;;25.30;16.42;;;;;;;18.48;50.83;100451.97;5040598;28;20054;-60
2022/04/23 11:14:39;;;;;;;26.90;15.73;;;;;;;18.11;49.20;100438.69;5048249;28;20037;-60
2022/04/23 11:17:07;;;;;;;29.58;16.65;;;;;;;17.91;48.77;100432.59;5039478;28;20123;-59
2022/04/23 11:19:32;;;;;;;25.80;16.08;;;;;;;18.25;49.45;100424.63;5040763;28;20140;-59
2022/04/23 11:21:58;;;;;;;27.65;16.17;;;;;;;18.14;47.37;100435.69;5057487;28;20081;-59
2022/04/23 11:24:24;;;;;;;26.60;15.82;;;;;;;18.21;46.01;100430.50;5057765;28;20111;-62
2022/04/23 11:26:51;;;;;;;31.90;17.67;;;;;;;17.97;47.51;100426.59;5055611;28;20754;-59
2022/04/23 11:29:17;;;;;;;28.10;17.30;;;;;;;17.68;47.79;100425.97;5024876;28;20040;-59
2022/04/23 11:31:58;;;;;;;25.27;15.68;;;;;;;17.59;47.49;100425.88;5059253;28;20127;-59
2022/04/23 11:34:24;;;;;;;27.53;16.63;;;;;;;18.08;49.17;100414.72;5025270;28;20066;-59
2022/04/23 11:36:51;;;;;;;29.98;17.17;;;;;;;18.55;49.83;100433.28;5039734;28;20024;-59
2022/04/23 11:39:17;;;;;;;28.10;16.98;;;;;;;17.99;47.56;100421.06;5058265;28;20036;-60
2022/04/23 11:41:48;;;;;;;26.30;16.02;;;;;;;17.95;47.51;100430.44;5057436;28;20126;-58